Shokyu Maru — JG5288 — position and weather

sailwx.info

Track history (hours):
 
Tides and Currents Weather Stations Pressure Air Temp Water Temp Dewpoint Dewpoint Depression Visibility Wind Speed Wind Dir Waves Ship Positions

Shokyu Maru

Last reported at 2014-Oct-30 12:25 UTC. Time now 2014-Oct-30 12:53 UTC.
Position N 35°35' E 139°55'.

Length 91 m; draft 3.9 m.

Type: Tanker. MMSI: 431000253.

Date/timePositionNaut miles runAvg speedWind from/ knotsBaromVisibWave heightAir tempDewpointWater temp
2014-Oct-30 12:25N 35°35' E 139°55'0 0.0
2014-Oct-30 11:16N 35°35' E 139°55'3 3.3
2014-Oct-30 10:21N 35°33' E 139°58'3 0.7
2014-Oct-30 06:29N 35°31' E 140°00'6 1.4
2014-Oct-30 02:27N 35°36' E 139°56'2 0.5
2014-Oct-29 21:24N 35°38' E 139°58'3 1.6
2014-Oct-29 19:32N 35°36' E 139°55'0 0.0
2014-Oct-29 18:29N 35°36' E 139°55'0 0.0
2014-Oct-29 17:32N 35°36' E 139°55'0 0.0
2014-Oct-29 16:26N 35°36' E 139°55'0 0.0
2014-Oct-29 15:32N 35°36' E 139°55'0 0.0
2014-Oct-29 14:26N 35°36' E 139°55'0 0.0
2014-Oct-29 13:29N 35°36' E 139°55'0 0.0
2014-Oct-29 12:26N 35°36' E 139°55'0 0.0
2014-Oct-29 11:34N 35°36' E 139°55'2 1.5
2014-Oct-29 10:22N 35°35' E 139°56'5 1.3
2014-Oct-29 06:30N 35°31' E 140°00'5 5.4
2014-Oct-29 05:30N 35°34' E 139°55'3 0.9
2014-Oct-29 02:17N 35°37' E 139°58'1 0.3
2014-Oct-28 21:29N 35°38' E 139°59'4 1.2
2014-Oct-28 18:31N 35°36' E 139°55'0 0.0
2014-Oct-28 17:22N 35°36' E 139°55'0 0.0
2014-Oct-28 15:31N 35°36' E 139°55'0 0.0
2014-Oct-28 14:31N 35°36' E 139°55'0 0.0
2014-Oct-28 13:31N 35°36' E 139°55'0 0.0
2014-Oct-28 12:31N 35°36' E 139°55'0 0.0
2014-Oct-28 10:10N 35°36' E 139°55'1 2.1
2014-Oct-28 09:32N 35°35' E 139°54'9 8.3
2014-Oct-28 08:31N 35°30' E 139°45'0 0.0
2014-Oct-28 07:28N 35°30' E 139°45'0 0.0
2014-Oct-28 06:28N 35°30' E 139°45'0 0.0
2014-Oct-28 05:31N 35°30' E 139°45'1 0.5
2014-Oct-28 04:33N 35°30' E 139°45'3 2.7
2014-Oct-28 03:33N 35°27' E 139°46'15 2.4
2014-Oct-27 21:24N 35°38' E 139°59'4 0.3
2014-Oct-27 09:33N 35°35' E 139°55'7 7.1
2014-Oct-27 08:30N 35°31' E 140°03'0 0.0
2014-Oct-27 07:24N 35°31' E 140°03'0 0.0
2014-Oct-27 06:24N 35°31' E 140°03'0 0.0
2014-Oct-27 04:30N 35°31' E 140°03'2 1.8
2014-Oct-27 03:31N 35°31' E 140°00'6 6.1
2014-Oct-27 02:34N 35°36' E 139°57'1 0.2
2014-Oct-26 21:33N 35°37' E 139°58'3 2.6
2014-Oct-26 20:32N 35°36' E 139°55'0 0.0
2014-Oct-26 19:32N 35°36' E 139°55'0 0.0
2014-Oct-26 18:32N 35°36' E 139°55'0 0.0
2014-Oct-26 17:32N 35°36' E 139°55'0 0.0
2014-Oct-26 16:32N 35°36' E 139°55'0 0.0
2014-Oct-26 15:32N 35°36' E 139°55'0 0.0
2014-Oct-26 14:32N 35°36' E 139°55'0 0.0
2014-Oct-26 13:32N 35°36' E 139°55'0 0.0
2014-Oct-26 12:32N 35°36' E 139°55'0 0.0
2014-Oct-26 11:32N 35°36' E 139°55'1 0.8
2014-Oct-26 10:33N 35°35' E 139°54'9 8.8
2014-Oct-26 09:32N 35°30' E 139°45'0 0.0
2014-Oct-26 08:32N 35°30' E 139°45'0 0.0
2014-Oct-26 07:32N 35°30' E 139°45'0 0.0
2014-Oct-26 06:32N 35°30' E 139°45'1 0.7
2014-Oct-26 05:33N 35°30' E 139°44'3 3.0
2014-Oct-26 04:33N 35°27' E 139°45'5 5.2
2014-Oct-26 03:33N 35°30' E 139°50'1010.1
2014-Oct-26 02:31N 35°38' E 139°58'1 0.2
2014-Oct-25 21:33N 35°37' E 139°57'2 1.9
2014-Oct-25 20:23N 35°36' E 139°55'0 0.0
2014-Oct-25 19:26N 35°36' E 139°55'0 0.0
2014-Oct-25 18:26N 35°36' E 139°55'0 0.0
2014-Oct-25 17:20N 35°36' E 139°55'0 0.0
2014-Oct-25 16:32N 35°36' E 139°55'0 0.0
2014-Oct-25 15:32N 35°36' E 139°55'0 0.0
2014-Oct-25 14:26N 35°36' E 139°55'0 0.0
2014-Oct-25 13:20N 35°36' E 139°55'0 0.0
2014-Oct-25 12:26N 35°36' E 139°55'0 0.0
2014-Oct-25 09:23N 35°36' E 139°55'4 5.0
2014-Oct-25 08:29N 35°33' E 139°59'3 3.5
2014-Oct-25 07:33N 35°31' E 140°03'0 0.0
2014-Oct-25 04:03N 35°31' E 140°03'0 0.1
2014-Oct-25 03:30N 35°31' E 140°03'7 7.2
2014-Oct-25 02:33N 35°34' E 139°55'5 0.9
2014-Oct-24 21:28N 35°38' E 139°59'3 3.7
2014-Oct-24 20:32N 35°36' E 139°55'0 0.0
2014-Oct-24 19:23N 35°36' E 139°55'0 0.0
2014-Oct-24 18:32N 35°36' E 139°55'0 0.0
2014-Oct-24 17:32N 35°36' E 139°55'0 0.0
2014-Oct-24 14:24N 35°36' E 139°55'7 8.6
2014-Oct-24 13:33N 35°31' E 139°49'3 2.6
2014-Oct-24 12:32N 35°32' E 139°46'0 0.0
2014-Oct-24 11:32N 35°32' E 139°46'0 0.0
2014-Oct-24 10:32N 35°32' E 139°46'0 0.0
2014-Oct-24 09:26N 35°32' E 139°46'0 0.0
2014-Oct-24 08:32N 35°32' E 139°46'5 4.8
2014-Oct-24 07:34N 35°27' E 139°44'5 4.6
2014-Oct-24 06:33N 35°29' E 139°49'0 0.0
2014-Oct-24 05:27N 35°29' E 139°49'0 0.0
2014-Oct-24 04:33N 35°29' E 139°49'0 0.0
2014-Oct-24 03:33N 35°29' E 139°49'6 6.1
2014-Oct-24 02:31N 35°34' E 139°54'5 1.1
2014-Oct-23 21:24N 35°38' E 139°58'4 3.1
2014-Oct-23 20:12N 35°35' E 139°55'0 0.0
2014-Oct-23 18:06N 35°35' E 139°55'0 0.0
2014-Oct-23 17:30N 35°35' E 139°55'0 0.0
2014-Oct-23 16:33N 35°35' E 139°55'0 0.0
2014-Oct-23 15:24N 35°35' E 139°55'5 1.1
2014-Oct-23 10:28N 35°32' E 139°60'1 0.2
2014-Oct-23 06:28N 35°31' E 139°59'4 3.7
2014-Oct-23 05:26N 35°34' E 139°55'1 1.3
2014-Oct-23 04:30N 35°35' E 139°55'4 0.8
2014-Oct-22 23:24N 35°38' E 139°59'4 2.1
2014-Oct-22 21:27N 35°35' E 139°54'0 0.0
2014-Oct-22 20:33N 35°35' E 139°54'0 0.0
2014-Oct-22 18:26N 35°35' E 139°54'0 0.0
2014-Oct-22 15:33N 35°35' E 139°54'0 0.0
2014-Oct-22 14:27N 35°35' E 139°54'0 0.0
2014-Oct-22 11:18N 35°35' E 139°54'1 1.0
2014-Oct-22 10:32N 35°35' E 139°54'7 7.5
2014-Oct-22 09:33N 35°31' E 139°46'0 0.1
2014-Oct-22 08:11N 35°31' E 139°46'0 0.0
2014-Oct-22 07:29N 35°31' E 139°46'0 0.0
2014-Oct-22 06:32N 35°31' E 139°46'0 0.0
2014-Oct-22 05:23N 35°31' E 139°46'1 1.4
2014-Oct-22 04:33N 35°30' E 139°45'3 3.0
2014-Oct-22 03:33N 35°28' E 139°47'1210.6
2014-Oct-22 02:28N 35°36' E 139°57'2 0.4
2014-Oct-21 21:29N 35°37' E 139°58'3 2.3
2014-Oct-21 20:09N 35°36' E 139°55'0 0.1
2014-Oct-21 19:30N 35°36' E 139°55'0 0.1
2014-Oct-21 18:33N 35°36' E 139°55'0 0.0
2014-Oct-21 16:21N 35°36' E 139°55'2 0.6
2014-Oct-21 12:33N 35°34' E 139°57'4 0.9
2014-Oct-21 08:29N 35°31' E 140°00'5 0.9
2014-Oct-21 02:32N 35°35' E 139°55'4 0.8
2014-Oct-20 21:23N 35°38' E 139°59'3 0.9
2014-Oct-20 17:33N 35°36' E 139°55'9 8.8
2014-Oct-20 16:33N 35°31' E 139°46'0 0.1
2014-Oct-20 15:33N 35°31' E 139°46'0 0.0
2014-Oct-20 14:33N 35°31' E 139°46'0 0.0
2014-Oct-20 13:33N 35°31' E 139°46'0 0.0
2014-Oct-20 12:33N 35°31' E 139°46'  
Track history (hours):
 
Tides and Currents Weather Stations Pressure Air Temp Water Temp Dewpoint Dewpoint Depression Visibility Wind Speed Wind Dir Waves Ship Positions

Shokyu Maru

Last reported at 2014-Oct-30 12:25 UTC. Time now 2014-Oct-30 12:53 UTC.
Position N 35°35' E 139°55'.

Length 91 m; draft 3.9 m.

Type: Tanker. MMSI: 431000253.

Date/timePositionNaut miles runAvg speedWind from/ knotsBaromVisibWave heightAir tempDewpointWater temp
2014-Oct-30 12:25N 35°35' E 139°55'0 0.0
2014-Oct-30 11:16N 35°35' E 139°55'3 3.3
2014-Oct-30 10:21N 35°33' E 139°58'3 0.7
2014-Oct-30 06:29N 35°31' E 140°00'6 1.4
2014-Oct-30 02:27N 35°36' E 139°56'2 0.5
2014-Oct-29 21:24N 35°38' E 139°58'3 1.6
2014-Oct-29 19:32N 35°36' E 139°55'0 0.0
2014-Oct-29 18:29N 35°36' E 139°55'0 0.0
2014-Oct-29 17:32N 35°36' E 139°55'0 0.0
2014-Oct-29 16:26N 35°36' E 139°55'0 0.0
2014-Oct-29 15:32N 35°36' E 139°55'0 0.0
2014-Oct-29 14:26N 35°36' E 139°55'0 0.0
2014-Oct-29 13:29N 35°36' E 139°55'0 0.0
2014-Oct-29 12:26N 35°36' E 139°55'0 0.0
2014-Oct-29 11:34N 35°36' E 139°55'2 1.5
2014-Oct-29 10:22N 35°35' E 139°56'5 1.3
2014-Oct-29 06:30N 35°31' E 140°00'5 5.4
2014-Oct-29 05:30N 35°34' E 139°55'3 0.9
2014-Oct-29 02:17N 35°37' E 139°58'1 0.3
2014-Oct-28 21:29N 35°38' E 139°59'4 1.2
2014-Oct-28 18:31N 35°36' E 139°55'0 0.0
2014-Oct-28 17:22N 35°36' E 139°55'0 0.0
2014-Oct-28 15:31N 35°36' E 139°55'0 0.0
2014-Oct-28 14:31N 35°36' E 139°55'0 0.0
2014-Oct-28 13:31N 35°36' E 139°55'0 0.0
2014-Oct-28 12:31N 35°36' E 139°55'0 0.0
2014-Oct-28 10:10N 35°36' E 139°55'1 2.1
2014-Oct-28 09:32N 35°35' E 139°54'9 8.3
2014-Oct-28 08:31N 35°30' E 139°45'0 0.0
2014-Oct-28 07:28N 35°30' E 139°45'0 0.0
2014-Oct-28 06:28N 35°30' E 139°45'0 0.0
2014-Oct-28 05:31N 35°30' E 139°45'1 0.5
2014-Oct-28 04:33N 35°30' E 139°45'3 2.7
2014-Oct-28 03:33N 35°27' E 139°46'15 2.4
2014-Oct-27 21:24N 35°38' E 139°59'4 0.3
2014-Oct-27 09:33N 35°35' E 139°55'7 7.1
2014-Oct-27 08:30N 35°31' E 140°03'0 0.0
2014-Oct-27 07:24N 35°31' E 140°03'0 0.0
2014-Oct-27 06:24N 35°31' E 140°03'0 0.0
2014-Oct-27 04:30N 35°31' E 140°03'2 1.8
2014-Oct-27 03:31N 35°31' E 140°00'6 6.1
2014-Oct-27 02:34N 35°36' E 139°57'1 0.2
2014-Oct-26 21:33N 35°37' E 139°58'3 2.6
2014-Oct-26 20:32N 35°36' E 139°55'0 0.0
2014-Oct-26 19:32N 35°36' E 139°55'0 0.0
2014-Oct-26 18:32N 35°36' E 139°55'0 0.0
2014-Oct-26 17:32N 35°36' E 139°55'0 0.0
2014-Oct-26 16:32N 35°36' E 139°55'0 0.0
2014-Oct-26 15:32N 35°36' E 139°55'0 0.0
2014-Oct-26 14:32N 35°36' E 139°55'0 0.0
2014-Oct-26 13:32N 35°36' E 139°55'0 0.0
2014-Oct-26 12:32N 35°36' E 139°55'0 0.0
2014-Oct-26 11:32N 35°36' E 139°55'1 0.8
2014-Oct-26 10:33N 35°35' E 139°54'9 8.8
2014-Oct-26 09:32N 35°30' E 139°45'0 0.0
2014-Oct-26 08:32N 35°30' E 139°45'0 0.0
2014-Oct-26 07:32N 35°30' E 139°45'0 0.0
2014-Oct-26 06:32N 35°30' E 139°45'1 0.7
2014-Oct-26 05:33N 35°30' E 139°44'3 3.0
2014-Oct-26 04:33N 35°27' E 139°45'5 5.2
2014-Oct-26 03:33N 35°30' E 139°50'1010.1
2014-Oct-26 02:31N 35°38' E 139°58'1 0.2
2014-Oct-25 21:33N 35°37' E 139°57'2 1.9
2014-Oct-25 20:23N 35°36' E 139°55'0 0.0
2014-Oct-25 19:26N 35°36' E 139°55'0 0.0
2014-Oct-25 18:26N 35°36' E 139°55'0 0.0
2014-Oct-25 17:20N 35°36' E 139°55'0 0.0
2014-Oct-25 16:32N 35°36' E 139°55'0 0.0
2014-Oct-25 15:32N 35°36' E 139°55'0 0.0
2014-Oct-25 14:26N 35°36' E 139°55'0 0.0
2014-Oct-25 13:20N 35°36' E 139°55'0 0.0
2014-Oct-25 12:26N 35°36' E 139°55'0 0.0
2014-Oct-25 09:23N 35°36' E 139°55'4 5.0
2014-Oct-25 08:29N 35°33' E 139°59'3 3.5
2014-Oct-25 07:33N 35°31' E 140°03'0 0.0
2014-Oct-25 04:03N 35°31' E 140°03'0 0.1
2014-Oct-25 03:30N 35°31' E 140°03'7 7.2
2014-Oct-25 02:33N 35°34' E 139°55'5 0.9
2014-Oct-24 21:28N 35°38' E 139°59'3 3.7
2014-Oct-24 20:32N 35°36' E 139°55'0 0.0
2014-Oct-24 19:23N 35°36' E 139°55'0 0.0
2014-Oct-24 18:32N 35°36' E 139°55'0 0.0
2014-Oct-24 17:32N 35°36' E 139°55'0 0.0
2014-Oct-24 14:24N 35°36' E 139°55'7 8.6
2014-Oct-24 13:33N 35°31' E 139°49'3 2.6
2014-Oct-24 12:32N 35°32' E 139°46'0 0.0
2014-Oct-24 11:32N 35°32' E 139°46'0 0.0
2014-Oct-24 10:32N 35°32' E 139°46'0 0.0
2014-Oct-24 09:26N 35°32' E 139°46'0 0.0
2014-Oct-24 08:32N 35°32' E 139°46'5 4.8
2014-Oct-24 07:34N 35°27' E 139°44'5 4.6
2014-Oct-24 06:33N 35°29' E 139°49'0 0.0
2014-Oct-24 05:27N 35°29' E 139°49'0 0.0
2014-Oct-24 04:33N 35°29' E 139°49'0 0.0
2014-Oct-24 03:33N 35°29' E 139°49'6 6.1
2014-Oct-24 02:31N 35°34' E 139°54'5 1.1
2014-Oct-23 21:24N 35°38' E 139°58'4 3.1
2014-Oct-23 20:12N 35°35' E 139°55'0 0.0
2014-Oct-23 18:06N 35°35' E 139°55'0 0.0
2014-Oct-23 17:30N 35°35' E 139°55'0 0.0
2014-Oct-23 16:33N 35°35' E 139°55'0 0.0
2014-Oct-23 15:24N 35°35' E 139°55'5 1.1
2014-Oct-23 10:28N 35°32' E 139°60'1 0.2
2014-Oct-23 06:28N 35°31' E 139°59'4 3.7
2014-Oct-23 05:26N 35°34' E 139°55'1 1.3
2014-Oct-23 04:30N 35°35' E 139°55'4 0.8
2014-Oct-22 23:24N 35°38' E 139°59'4 2.1
2014-Oct-22 21:27N 35°35' E 139°54'0 0.0
2014-Oct-22 20:33N 35°35' E 139°54'0 0.0
2014-Oct-22 18:26N 35°35' E 139°54'0 0.0
2014-Oct-22 15:33N 35°35' E 139°54'0 0.0
2014-Oct-22 14:27N 35°35' E 139°54'0 0.0
2014-Oct-22 11:18N 35°35' E 139°54'1 1.0
2014-Oct-22 10:32N 35°35' E 139°54'7 7.5
2014-Oct-22 09:33N 35°31' E 139°46'0 0.1
2014-Oct-22 08:11N 35°31' E 139°46'0 0.0
2014-Oct-22 07:29N 35°31' E 139°46'0 0.0
2014-Oct-22 06:32N 35°31' E 139°46'0 0.0
2014-Oct-22 05:23N 35°31' E 139°46'1 1.4
2014-Oct-22 04:33N 35°30' E 139°45'3 3.0
2014-Oct-22 03:33N 35°28' E 139°47'1210.6
2014-Oct-22 02:28N 35°36' E 139°57'2 0.4
2014-Oct-21 21:29N 35°37' E 139°58'3 2.3
2014-Oct-21 20:09N 35°36' E 139°55'0 0.1
2014-Oct-21 19:30N 35°36' E 139°55'0 0.1
2014-Oct-21 18:33N 35°36' E 139°55'0 0.0
2014-Oct-21 16:21N 35°36' E 139°55'2 0.6
2014-Oct-21 12:33N 35°34' E 139°57'4 0.9
2014-Oct-21 08:29N 35°31' E 140°00'5 0.9
2014-Oct-21 02:32N 35°35' E 139°55'4 0.8
2014-Oct-20 21:23N 35°38' E 139°59'3 0.9
2014-Oct-20 17:33N 35°36' E 139°55'9 8.8
2014-Oct-20 16:33N 35°31' E 139°46'0 0.1
2014-Oct-20 15:33N 35°31' E 139°46'0 0.0
2014-Oct-20 14:33N 35°31' E 139°46'0 0.0
2014-Oct-20 13:33N 35°31' E 139°46'0 0.0
2014-Oct-20 12:33N 35°31' E 139°46'  

Dump ship's entire track history